PWSweather.com
Personal Weather Stations
Station Observations
FEDE1991
Gimnasia, ChivilcoyAR

GimnasiaChivilcoyAR

Lat: -34.8841772, Lon: -60.0315799

Elevation: 36

Station Type: WH1081

http://climachivilcoy.blogspot.com.ar/

Latest ConditionsUpdated 1:41:33 PM GMT-03:57 Monday, Sep 23, 2019
Currently Today's Max Today's Min Today's Average
Temperature 63.3°F17.4°C 63.3°F17.4°C 45.0°F7.2°C 51.0°F10.6°C
Dew Point 37.9°F3.3°C 37.9°F3.3°C 15.1°F-9.4°C 34.0°F1.1°C
Winds 9.2 mph 14.8 kmh 18.3 mph -29.5 kmh - - 7.9 mph 12.7 kmh
Wind Gusts 18.3 mph29.5 kmh 22.8 mph36.7 kmh - -
Humidity 39% 65% 26% 53%
Pressure 30.00 in1015.9 mb 30.13 in1020.3 mb 30.00 in1015.9 mb -
Hour Temp Dew Point Humidity Winds Wind Gusts Pressure Precip Precip Rate Daily Precip Total
01:41 PM 63.3°F17.4°C 37.9°F3.3°C 39% 9.2 mph 14.8 kmh 18.3 mph29.5 kmh 30.00 in1015.9 mb 0.00 in0.0 mm 0.00 in0.0 mm 0.00 in0.0 mm
01:31 PM 62.4°F16.9°C 37.8°F3.2°C 40% 10.7 mph NNE17.2 kmh NNE 18.3 mph29.5 kmh 30.01 in1016.3 mb 0.00 in0.0 mm 0.00 in0.0 mm 0.00 in0.0 mm
01:21 PM 61.7°F16.5°C 36.5°F2.5°C 39% 12.1 mph 19.5 kmh 19.0 mph30.6 kmh 30.01 in1016.3 mb 0.00 in0.0 mm 0.00 in0.0 mm 0.00 in0.0 mm
01:11 PM 61.3°F16.3°C 36.1°F2.3°C 39% 9.2 mph NE14.8 kmh NE 19.7 mph31.7 kmh 30.01 in1016.3 mb 0.00 in0.0 mm 0.00 in0.0 mm 0.00 in0.0 mm
01:01 PM 61.5°F16.4°C 36.3°F2.4°C 39% 13.6 mph NE21.9 kmh NE 19.7 mph31.7 kmh 30.02 in1016.6 mb 0.00 in0.0 mm 0.00 in0.0 mm 0.00 in0.0 mm
12:51 PM 61.0°F16.1°C 36.5°F2.5°C 40% 9.2 mph NE14.8 kmh NE 15.2 mph24.5 kmh 30.03 in1016.9 mb 0.00 in0.0 mm 0.00 in0.0 mm 0.00 in0.0 mm
12:40 PM 61.0°F16.1°C 35.8°F2.1°C 39% 9.2 mph NNE14.8 kmh NNE 14.5 mph23.3 kmh 30.04 in1017.3 mb 0.00 in0.0 mm 0.00 in0.0 mm 0.00 in0.0 mm
12:30 PM 61.2°F16.2°C 36.7°F2.6°C 40% 7.6 mph 12.2 kmh 13.6 mph21.9 kmh 30.05 in1017.6 mb 0.00 in0.0 mm 0.00 in0.0 mm 0.00 in0.0 mm
12:20 PM 60.6°F15.9°C 36.9°F2.7°C 41% 7.6 mph 12.2 kmh 13.0 mph20.9 kmh 30.04 in1017.3 mb 0.00 in0.0 mm 0.00 in0.0 mm 0.00 in0.0 mm
12:10 PM 60.1°F15.6°C 36.3°F2.4°C 41% 6.0 mph NE9.7 kmh NE 15.2 mph24.5 kmh 30.04 in1017.3 mb 0.00 in0.0 mm 0.00 in0.0 mm 0.00 in0.0 mm
12:00 PM 59.9°F15.5°C 36.1°F2.3°C 41% 8.3 mph 13.4 kmh 16.8 mph27.0 kmh 30.05 in1017.6 mb 0.00 in0.0 mm 0.00 in0.0 mm 0.00 in0.0 mm
11:50 AM 59.4°F15.2°C 35.6°F2.0°C 41% 9.2 mph 14.8 kmh 19.7 mph31.7 kmh 30.05 in1017.6 mb 0.00 in0.0 mm 0.00 in0.0 mm 0.00 in0.0 mm
11:40 AM 59.0°F15.0°C 35.4°F1.9°C 41% 13.0 mph 20.9 kmh 20.6 mph33.2 kmh 30.04 in1017.3 mb 0.00 in0.0 mm 0.00 in0.0 mm 0.00 in0.0 mm
11:30 AM 59.0°F15.0°C 36.0°F2.2°C 42% 9.8 mph 15.8 kmh 18.3 mph29.5 kmh 30.05 in1017.6 mb 0.00 in0.0 mm 0.00 in0.0 mm 0.00 in0.0 mm
11:20 AM 58.5°F14.7°C 36.0°F2.2°C 43% 10.7 mph 17.2 kmh 21.3 mph34.3 kmh 30.05 in1017.6 mb 0.00 in0.0 mm 0.00 in0.0 mm 0.00 in0.0 mm
11:10 AM 58.8°F14.9°C 37.6°F3.1°C 45% 14.5 mph 23.3 kmh 21.3 mph34.3 kmh 30.05 in1017.6 mb 0.00 in0.0 mm 0.00 in0.0 mm 0.00 in0.0 mm
10:59 AM 57.7°F14.3°C 37.6°F3.1°C 47% 7.6 mph NE12.2 kmh NE 19.0 mph30.6 kmh 30.05 in1017.6 mb 0.00 in0.0 mm 0.00 in0.0 mm 0.00 in0.0 mm
10:49 AM 57.4°F14.1°C 37.4°F3.0°C 47% 13.0 mph NE20.9 kmh NE 21.3 mph34.3 kmh 30.05 in1017.6 mb 0.00 in0.0 mm 0.00 in0.0 mm 0.00 in0.0 mm
10:39 AM 56.7°F13.7°C 37.2°F2.9°C 48% 13.0 mph NE20.9 kmh NE 22.8 mph36.7 kmh 30.05 in1017.6 mb 0.00 in0.0 mm 0.00 in0.0 mm 0.00 in0.0 mm
10:29 AM 56.5°F13.6°C 36.5°F2.5°C 47% 18.3 mph NE29.5 kmh NE 22.8 mph36.7 kmh 30.05 in1017.6 mb 0.00 in0.0 mm 0.00 in0.0 mm 0.00 in0.0 mm
10:19 AM 55.9°F13.3°C 37.0°F2.8°C 49% 15.2 mph 24.5 kmh 20.6 mph33.2 kmh 30.04 in1017.3 mb 0.00 in0.0 mm 0.00 in0.0 mm 0.00 in0.0 mm
10:09 AM 54.9°F12.7°C 36.5°F2.5°C 50% 15.2 mph NE24.5 kmh NE 21.3 mph34.3 kmh 30.04 in1017.3 mb 0.00 in0.0 mm 0.00 in0.0 mm 0.00 in0.0 mm
09:59 AM 53.8°F12.1°C 37.0°F2.8°C 53% 6.9 mph NNW11.1 kmh NNW 19.0 mph30.6 kmh 30.04 in1017.3 mb 0.00 in0.0 mm 0.00 in0.0 mm 0.00 in0.0 mm
09:49 AM 52.9°F11.6°C 36.7°F2.6°C 54% 11.4 mph NE18.3 kmh NE 19.0 mph30.6 kmh 30.04 in1017.3 mb 0.00 in0.0 mm 0.00 in0.0 mm 0.00 in0.0 mm
09:39 AM 52.7°F11.5°C 36.5°F2.5°C 54% 13.6 mph NE21.9 kmh NE 18.3 mph29.5 kmh 30.04 in1017.3 mb 0.00 in0.0 mm 0.00 in0.0 mm 0.00 in0.0 mm
09:28 AM 52.2°F11.2°C 36.0°F2.2°C 54% 13.6 mph NE21.9 kmh NE 19.7 mph31.7 kmh 30.05 in1017.6 mb 0.00 in0.0 mm 0.00 in0.0 mm 0.00 in0.0 mm
09:18 AM 51.8°F11.0°C 36.1°F2.3°C 55% 6.9 mph NE11.1 kmh NE 19.7 mph31.7 kmh 30.05 in1017.6 mb 0.00 in0.0 mm 0.00 in0.0 mm 0.00 in0.0 mm
09:08 AM 51.6°F10.9°C 36.5°F2.5°C 56% 14.5 mph NE23.3 kmh NE 21.3 mph34.3 kmh 30.04 in1017.3 mb 0.00 in0.0 mm 0.00 in0.0 mm 0.00 in0.0 mm
08:58 AM 51.4°F10.8°C 36.7°F2.6°C 57% 9.2 mph NE14.8 kmh NE 22.1 mph35.6 kmh 30.04 in1017.3 mb 0.00 in0.0 mm 0.00 in0.0 mm 0.00 in0.0 mm
08:48 AM 51.3°F10.7°C 36.5°F2.5°C 57% 13.0 mph NE20.9 kmh NE 22.8 mph36.7 kmh 30.04 in1017.3 mb 0.00 in0.0 mm 0.00 in0.0 mm 0.00 in0.0 mm
08:38 AM 50.7°F10.4°C 36.9°F2.7°C 59% 9.8 mph NE15.8 kmh NE 22.1 mph35.6 kmh 30.04 in1017.3 mb 0.00 in0.0 mm 0.00 in0.0 mm 0.00 in0.0 mm
08:28 AM 50.5°F10.3°C 37.6°F3.1°C 61% 9.2 mph WSW14.8 kmh WSW 18.3 mph29.5 kmh 30.04 in1017.3 mb 0.00 in0.0 mm 0.00 in0.0 mm 0.00 in0.0 mm
08:18 AM 50.0°F10.0°C 37.6°F3.1°C 62% 11.4 mph NE18.3 kmh NE 19.0 mph30.6 kmh 30.04 in1017.3 mb 0.00 in0.0 mm 0.00 in0.0 mm 0.00 in0.0 mm
08:08 AM 50.0°F10.0°C 37.9°F3.3°C 63% 10.7 mph NE17.2 kmh NE 19.7 mph31.7 kmh 30.04 in1017.3 mb 0.00 in0.0 mm 0.00 in0.0 mm 0.00 in0.0 mm
07:58 AM 49.6°F9.8°C 37.6°F3.1°C 63% 11.4 mph NE18.3 kmh NE 18.3 mph29.5 kmh 30.04 in1017.3 mb 0.00 in0.0 mm 0.00 in0.0 mm 0.00 in0.0 mm
07:47 AM 49.6°F9.8°C 37.9°F3.3°C 64% 9.2 mph NE14.8 kmh NE 16.8 mph27.0 kmh 30.04 in1017.3 mb 0.00 in0.0 mm 0.00 in0.0 mm 0.00 in0.0 mm
07:37 AM 48.9°F9.4°C 37.2°F2.9°C 64% 8.3 mph NE13.4 kmh NE 16.8 mph27.0 kmh 30.05 in1017.6 mb 0.00 in0.0 mm 0.00 in0.0 mm 0.00 in0.0 mm
07:27 AM 48.9°F9.4°C 37.8°F3.2°C 65% 8.3 mph E13.4 kmh E 16.8 mph27.0 kmh 30.04 in1017.3 mb 0.00 in0.0 mm 0.00 in0.0 mm 0.00 in0.0 mm
07:17 AM 48.7°F9.3°C 37.6°F3.1°C 65% 8.3 mph NE13.4 kmh NE 18.3 mph29.5 kmh 30.04 in1017.3 mb 0.00 in0.0 mm 0.00 in0.0 mm 0.00 in0.0 mm
07:07 AM 48.6°F9.2°C 37.4°F3.0°C 65% 9.8 mph NE15.8 kmh NE 15.9 mph25.6 kmh 30.04 in1017.3 mb 0.00 in0.0 mm 0.00 in0.0 mm 0.00 in0.0 mm
06:57 AM 48.4°F9.1°C 37.2°F2.9°C 65% 4.5 mph NE7.2 kmh NE 17.4 mph28.0 kmh 30.04 in1017.3 mb 0.00 in0.0 mm 0.00 in0.0 mm 0.00 in0.0 mm
06:47 AM 48.0°F8.9°C 36.5°F2.5°C 64% 6.9 mph NE11.1 kmh NE 15.2 mph24.5 kmh 30.04 in1017.3 mb 0.00 in0.0 mm 0.00 in0.0 mm 0.00 in0.0 mm
06:37 AM 48.2°F9.0°C 36.7°F2.6°C 64% 9.2 mph NE14.8 kmh NE 17.4 mph28.0 kmh 30.03 in1016.9 mb 0.00 in0.0 mm 0.00 in0.0 mm 0.00 in0.0 mm
06:27 AM 47.8°F8.8°C 35.8°F2.1°C 63% 6.9 mph NNE11.1 kmh NNE 15.9 mph25.6 kmh 30.04 in1017.3 mb 0.00 in0.0 mm 0.00 in0.0 mm 0.00 in0.0 mm
06:17 AM 47.8°F8.8°C 35.8°F2.1°C 63% 10.7 mph NE17.2 kmh NE 15.2 mph24.5 kmh 30.03 in1016.9 mb 0.00 in0.0 mm 0.00 in0.0 mm 0.00 in0.0 mm
06:06 AM 47.3°F8.5°C 35.8°F2.1°C 64% 6.0 mph NE9.7 kmh NE 13.6 mph21.9 kmh 30.04 in1017.3 mb 0.00 in0.0 mm 0.00 in0.0 mm 0.00 in0.0 mm
05:56 AM 46.6°F8.1°C 34.7°F1.5°C 63% 7.6 mph 12.2 kmh 13.0 mph20.9 kmh 30.04 in1017.3 mb 0.00 in0.0 mm 0.00 in0.0 mm 0.00 in0.0 mm
05:46 AM 46.0°F7.8°C 34.2°F1.2°C 63% 4.5 mph E7.2 kmh E 15.2 mph24.5 kmh 30.04 in1017.3 mb 0.00 in0.0 mm 0.00 in0.0 mm 0.00 in0.0 mm
05:36 AM 45.9°F7.7°C 34.0°F1.1°C 63% 7.6 mph NE12.2 kmh NE 12.1 mph19.5 kmh 30.04 in1017.3 mb 0.00 in0.0 mm 0.00 in0.0 mm 0.00 in0.0 mm
05:26 AM 45.7°F7.6°C 33.8°F1.0°C 63% 6.0 mph NE9.7 kmh NE 13.0 mph20.9 kmh 30.05 in1017.6 mb 0.00 in0.0 mm 0.00 in0.0 mm 0.00 in0.0 mm
05:16 AM 45.3°F7.4°C 33.4°F0.8°C 63% 6.0 mph NE9.7 kmh NE 12.1 mph19.5 kmh 30.05 in1017.6 mb 0.00 in0.0 mm 0.00 in0.0 mm 0.00 in0.0 mm
05:06 AM 45.1°F7.3°C 33.3°F0.7°C 63% 6.0 mph NNE9.7 kmh NNE 11.4 mph18.3 kmh 30.05 in1017.6 mb 0.00 in0.0 mm 0.00 in0.0 mm 0.00 in0.0 mm
04:56 AM 45.1°F7.3°C 33.3°F0.7°C 63% 5.4 mph ENE8.7 kmh ENE 11.4 mph18.3 kmh 30.04 in1017.3 mb 0.00 in0.0 mm 0.00 in0.0 mm 0.00 in0.0 mm
04:46 AM 45.1°F7.3°C 33.3°F0.7°C 63% 3.8 mph NE6.1 kmh NE 9.8 mph15.8 kmh 30.05 in1017.6 mb 0.00 in0.0 mm 0.00 in0.0 mm 0.00 in0.0 mm
04:35 AM 45.1°F7.3°C 33.3°F0.7°C 63% 5.4 mph NE8.7 kmh NE 9.8 mph15.8 kmh 30.05 in1017.6 mb 0.00 in0.0 mm 0.00 in0.0 mm 0.00 in0.0 mm
04:25 AM 45.1°F7.3°C 33.6°F0.9°C 64% 4.5 mph NE7.2 kmh NE 9.2 mph14.8 kmh 30.06 in1017.9 mb 0.00 in0.0 mm 0.00 in0.0 mm 0.00 in0.0 mm
04:15 AM 45.0°F7.2°C 33.4°F0.8°C 64% 3.1 mph 5.0 kmh 9.2 mph14.8 kmh 30.06 in1017.9 mb 0.00 in0.0 mm 0.00 in0.0 mm 0.00 in0.0 mm
04:05 AM 45.0°F7.2°C 33.1°F0.6°C 63% 3.8 mph NE6.1 kmh NE 7.6 mph12.2 kmh 30.07 in1018.3 mb 0.00 in0.0 mm 0.00 in0.0 mm 0.00 in0.0 mm
03:55 AM 45.5°F7.5°C 34.0°F1.1°C 64% 3.1 mph NE5.0 kmh NE 8.3 mph13.4 kmh 30.07 in1018.3 mb 0.00 in0.0 mm 0.00 in0.0 mm 0.00 in0.0 mm
03:45 AM 45.9°F7.7°C 34.3°F1.3°C 64% 4.5 mph NE7.2 kmh NE 9.2 mph14.8 kmh 30.07 in1018.3 mb 0.00 in0.0 mm 0.00 in0.0 mm 0.00 in0.0 mm
03:35 AM 45.9°F7.7°C 34.3°F1.3°C 64% 4.5 mph NE7.2 kmh NE 8.3 mph13.4 kmh 30.08 in1018.6 mb 0.00 in0.0 mm 0.00 in0.0 mm 0.00 in0.0 mm
03:25 AM 45.7°F7.6°C 34.2°F1.2°C 64% 4.5 mph NE7.2 kmh NE 9.2 mph14.8 kmh 30.08 in1018.6 mb 0.00 in0.0 mm 0.00 in0.0 mm 0.00 in0.0 mm
03:15 AM 46.0°F7.8°C 34.2°F1.2°C 63% 3.8 mph 6.1 kmh 8.3 mph13.4 kmh 30.09 in1019.0 mb 0.00 in0.0 mm 0.00 in0.0 mm 0.00 in0.0 mm
03:05 AM 46.2°F7.9°C 34.3°F1.3°C 63% 6.0 mph ENE9.7 kmh ENE -- 30.09 in1019.0 mb 0.00 in0.0 mm 0.00 in0.0 mm 0.00 in0.0 mm
03:02 AM 46.2°F7.9°C 34.3°F1.3°C 63% 6.0 mph ENE9.7 kmh ENE -- 30.09 in1019.0 mb 0.00 in0.0 mm 0.00 in0.0 mm 0.00 in0.0 mm
02:59 AM 46.2°F7.9°C 34.3°F1.3°C 63% 6.0 mph ENE9.7 kmh ENE 8.3 mph13.4 kmh 30.09 in1019.0 mb 0.00 in0.0 mm 0.00 in0.0 mm 0.00 in0.0 mm
02:49 AM 46.6°F8.1°C 33.8°F1.0°C 61% 5.4 mph NE8.7 kmh NE 8.3 mph13.4 kmh 30.09 in1019.0 mb 0.00 in0.0 mm 0.00 in0.0 mm 0.00 in0.0 mm
02:39 AM 46.8°F8.2°C 33.6°F0.9°C 60% 3.1 mph NE5.0 kmh NE 7.6 mph12.2 kmh 30.09 in1019.0 mb 0.00 in0.0 mm 0.00 in0.0 mm 0.00 in0.0 mm
02:29 AM 46.9°F8.3°C 33.4°F0.8°C 59% 4.5 mph NE7.2 kmh NE 6.9 mph11.1 kmh 30.10 in1019.3 mb 0.00 in0.0 mm 0.00 in0.0 mm 0.00 in0.0 mm
02:19 AM 47.1°F8.4°C 33.1°F0.6°C 58% 3.1 mph NE5.0 kmh NE 7.6 mph12.2 kmh 30.10 in1019.3 mb 0.00 in0.0 mm 0.00 in0.0 mm 0.00 in0.0 mm
02:09 AM 47.3°F8.5°C 32.4°F0.2°C 56% 5.4 mph NE8.7 kmh NE 8.3 mph13.4 kmh 30.10 in1019.3 mb 0.00 in0.0 mm 0.00 in0.0 mm 0.00 in0.0 mm
01:59 AM 47.3°F8.5°C 31.5°F-0.3°C 54% 3.8 mph NE6.1 kmh NE 7.6 mph12.2 kmh 30.10 in1019.3 mb 0.00 in0.0 mm 0.00 in0.0 mm 0.00 in0.0 mm
01:49 AM 47.5°F8.6°C 30.7°F-0.7°C 52% 2.2 mph E3.5 kmh E 7.6 mph12.2 kmh 30.10 in1019.3 mb 0.00 in0.0 mm 0.00 in0.0 mm 0.00 in0.0 mm
01:38 AM 47.5°F8.6°C 29.8°F-1.2°C 50% 3.1 mph NE5.0 kmh NE 9.2 mph14.8 kmh 30.10 in1019.3 mb 0.00 in0.0 mm 0.00 in0.0 mm 0.00 in0.0 mm
01:28 AM 47.3°F8.5°C 28.0°F-2.2°C 47% 4.5 mph NE7.2 kmh NE 9.2 mph14.8 kmh 30.11 in1019.6 mb 0.00 in0.0 mm 0.00 in0.0 mm 0.00 in0.0 mm
01:18 AM 47.5°F8.6°C 27.7°F-2.4°C 46% 5.4 mph NE8.7 kmh NE 9.2 mph14.8 kmh 30.11 in1019.6 mb 0.00 in0.0 mm 0.00 in0.0 mm 0.00 in0.0 mm
01:08 AM 47.7°F8.7°C 25.7°F-3.5°C 42% 5.4 mph E8.7 kmh E 10.7 mph17.2 kmh 30.11 in1019.6 mb 0.00 in0.0 mm 0.00 in0.0 mm 0.00 in0.0 mm
12:58 AM 47.7°F8.7°C 23.9°F-4.5°C 39% 6.9 mph NE11.1 kmh NE 10.7 mph17.2 kmh 30.11 in1019.6 mb 0.00 in0.0 mm 0.00 in0.0 mm 0.00 in0.0 mm
12:48 AM 48.0°F8.9°C 22.3°F-5.4°C 36% 6.0 mph E9.7 kmh E 10.7 mph17.2 kmh 30.11 in1019.6 mb 0.00 in0.0 mm 0.00 in0.0 mm 0.00 in0.0 mm
12:38 AM 48.4°F9.1°C 20.7°F-6.3°C 33% 8.3 mph E13.4 kmh E 10.7 mph17.2 kmh 30.12 in1020.0 mb 0.00 in0.0 mm 0.00 in0.0 mm 0.00 in0.0 mm
12:28 AM 48.7°F9.3°C 18.7°F-7.4°C 30% 6.0 mph E9.7 kmh E 9.2 mph14.8 kmh 30.12 in1020.0 mb 0.00 in0.0 mm 0.00 in0.0 mm 0.00 in0.0 mm
12:18 AM 48.4°F9.1°C 16.7°F-8.5°C 28% 5.4 mph NE8.7 kmh NE 9.2 mph14.8 kmh 30.12 in1020.0 mb 0.00 in0.0 mm 0.00 in0.0 mm 0.00 in0.0 mm
12:08 AM 48.4°F9.1°C 15.1°F-9.4°C 26% 5.4 mph NE8.7 kmh NE 9.2 mph14.8 kmh 30.13 in1020.3 mb 0.00 in0.0 mm 0.00 in0.0 mm 0.00 in0.0 mm